Time;durP1;ratioP1;P1;durP2;ratioP2;P2;SDS_P1;SDS_P2;PMS_P1;PMS_P2;Temp;Humidity;BMP_temperature;BMP_pressure;BME280_temperature;BME280_humidity;BME280_pressure;Samples;Min_cycle;Max_cycle;Signal;HPM_P1;HPM_P2
2023/12/21 00:02:05;;;;;;;2.42;0.52;;;;;;;;;;5031652;28;20504;-79
2023/12/21 00:04:31;;;;;;;1.80;0.43;;;;;;;;;;5027448;28;20029;-79
2023/12/21 00:06:56;;;;;;;1.35;0.55;;;;;;;;;;5014305;28;20513;-80
2023/12/21 00:09:21;;;;;;;1.85;0.45;;;;;;;;;;5035613;28;20041;-79
2023/12/21 00:11:46;;;;;;;2.83;0.60;;;;;;;;;;5031151;28;20045;-79
2023/12/21 00:14:11;;;;;;;2.17;0.50;;;;;;;;;;5033310;28;20025;-80
2023/12/21 00:16:36;;;;;;;2.33;0.50;;;;;;;;;;5009031;28;20030;-78
2023/12/21 00:19:02;;;;;;;2.50;0.63;;;;;;;;;;5032938;28;20056;-79
2023/12/21 00:21:27;;;;;;;1.80;0.52;;;;;;;;;;5030691;28;20092;-80
2023/12/21 00:23:52;;;;;;;3.60;0.77;;;;;;;;;;5013157;28;20087;-79
2023/12/21 00:26:18;;;;;;;3.80;0.45;;;;;;;;;;5034282;28;20037;-79
2023/12/21 00:28:43;;;;;;;2.40;0.80;;;;;;;;;;5032895;28;20025;-79
2023/12/21 00:31:08;;;;;;;2.50;0.50;;;;;;;;;;5032159;28;20037;-80
2023/12/21 00:33:34;;;;;;;3.30;0.60;;;;;;;;;;5032718;28;20449;-80
2023/12/21 00:35:59;;;;;;;2.13;0.47;;;;;;;;;;5038178;28;20067;-79
2023/12/21 00:38:24;;;;;;;2.00;0.50;;;;;;;;;;5035191;28;20048;-79
2023/12/21 00:40:50;;;;;;;4.40;0.90;;;;;;;;;;5035453;28;20034;-79
2023/12/21 00:43:15;;;;;;;2.53;0.57;;;;;;;;;;5016754;28;20025;-79
2023/12/21 00:45:40;;;;;;;2.80;0.80;;;;;;;;;;5034553;28;20434;-80
2023/12/21 00:48:06;;;;;;;1.67;0.50;;;;;;;;;;5084783;23;20146;-75
2023/12/21 00:50:31;;;;;;;1.88;0.55;;;;;;;;;;5031820;28;20025;-75
2023/12/21 00:52:56;;;;;;;1.77;0.75;;;;;;;;;;5030842;28;20608;-75
2023/12/21 00:55:21;;;;;;;2.83;0.50;;;;;;;;;;5028995;28;20022;-74
2023/12/21 00:57:46;;;;;;;1.70;0.50;;;;;;;;;;5024847;28;20049;-75
2023/12/21 01:00:12;;;;;;;1.10;0.60;;;;;;;;;;5027962;28;20044;-75
2023/12/21 01:02:38;;;;;;;1.63;0.32;;;;;;;;;;5032732;28;20029;-75
2023/12/21 01:05:03;;;;;;;2.53;0.50;;;;;;;;;;5028181;28;20053;-75
2023/12/21 01:07:28;;;;;;;1.48;0.50;;;;;;;;;;5033438;28;20033;-75
2023/12/21 01:09:54;;;;;;;3.42;0.65;;;;;;;;;;5028496;28;20042;-75
2023/12/21 01:12:19;;;;;;;1.75;0.35;;;;;;;;;;5029667;28;20025;-75
2023/12/21 01:14:44;;;;;;;1.17;0.40;;;;;;;;;;5025533;28;20462;-75
2023/12/21 01:17:09;;;;;;;0.95;0.38;;;;;;;;;;5031867;28;20026;-75
2023/12/21 01:19:35;;;;;;;1.13;0.30;;;;;;;;;;5030831;28;20038;-75
2023/12/21 01:22:00;;;;;;;1.05;0.30;;;;;;;;;;5027751;28;20100;-75
2023/12/21 01:24:25;;;;;;;0.95;0.30;;;;;;;;;;5026793;28;20025;-75
2023/12/21 01:26:50;;;;;;;1.70;0.30;;;;;;;;;;5027785;28;20026;-75
2023/12/21 01:29:16;;;;;;;2.55;0.30;;;;;;;;;;5025301;28;20026;-75
2023/12/21 01:31:41;;;;;;;0.98;0.40;;;;;;;;;;5030920;28;20042;-75
2023/12/21 01:34:06;;;;;;;0.57;0.30;;;;;;;;;;5029999;28;20032;-75
2023/12/21 01:36:31;;;;;;;1.95;0.40;;;;;;;;;;5026954;28;20486;-74
2023/12/21 01:38:56;;;;;;;0.80;0.20;;;;;;;;;;5025846;28;20448;-75
2023/12/21 01:41:22;;;;;;;1.33;0.20;;;;;;;;;;5024596;28;20021;-75
2023/12/21 01:43:47;;;;;;;2.40;0.30;;;;;;;;;;5024805;28;20034;-74
2023/12/21 01:46:13;;;;;;;1.02;0.20;;;;;;;;;;5030906;28;20099;-75
2023/12/21 01:48:38;;;;;;;0.57;0.20;;;;;;;;;;5028552;28;20041;-75
2023/12/21 01:51:04;;;;;;;1.73;0.30;;;;;;;;;;5029620;28;20026;-74
2023/12/21 01:53:30;;;;;;;0.57;0.20;;;;;;;;;;5025135;28;20033;-74
2023/12/21 01:55:56;;;;;;;0.88;0.20;;;;;;;;;;5024107;28;20040;-75
2023/12/21 01:58:22;;;;;;;1.00;0.25;;;;;;;;;;5027701;28;20030;-75
2023/12/21 02:00:47;;;;;;;2.08;0.28;;;;;;;;;;5029200;28;20037;-75
2023/12/21 02:03:12;;;;;;;1.17;0.35;;;;;;;;;;5028826;28;20929;-75
2023/12/21 02:05:38;;;;;;;0.68;0.20;;;;;;;;;;5025026;28;20495;-74
2023/12/21 02:08:03;;;;;;;0.20;0.10;;;;;;;;;;5026863;28;20029;-75
2023/12/21 02:10:28;;;;;;;1.10;0.22;;;;;;;;;;5022121;28;20065;-75
2023/12/21 02:12:53;;;;;;;0.85;0.20;;;;;;;;;;5029737;28;20120;-75
2023/12/21 02:15:19;;;;;;;0.17;0.10;;;;;;;;;;5029707;28;20033;-75
2023/12/21 02:17:46;;;;;;;1.15;0.20;;;;;;;;;;5027933;28;20038;-74
2023/12/21 02:20:12;;;;;;;0.82;0.30;;;;;;;;;;5009227;28;20051;-75
2023/12/21 02:22:37;;;;;;;1.33;0.80;;;;;;;;;;5025272;28;20022;-75
2023/12/21 02:25:03;;;;;;;1.00;0.10;;;;;;;;;;5022760;28;20482;-75
2023/12/21 02:27:28;;;;;;;1.77;0.20;;;;;;;;;;5030623;28;20473;-75
2023/12/21 02:29:53;;;;;;;0.35;0.00;;;;;;;;;;5027644;28;20052;-76
2023/12/21 02:32:18;;;;;;;0.57;0.10;;;;;;;;;;5030523;28;20029;-75
2023/12/21 02:34:44;;;;;;;0.32;0.10;;;;;;;;;;5022193;28;20038;-75
2023/12/21 02:37:09;;;;;;;0.70;0.10;;;;;;;;;;5030006;28;20057;-75
2023/12/21 02:39:34;;;;;;;0.55;0.20;;;;;;;;;;5027850;28;20030;-75
2023/12/21 02:41:59;;;;;;;0.52;0.20;;;;;;;;;;5029174;28;20069;-75
2023/12/21 02:44:24;;;;;;;2.63;0.10;;;;;;;;;;5029975;28;20080;-75
2023/12/21 02:46:49;;;;;;;0.85;0.20;;;;;;;;;;5026787;28;20045;-75
2023/12/21 02:49:15;;;;;;;1.10;0.20;;;;;;;;;;5030017;28;20474;-75
2023/12/21 02:51:40;;;;;;;0.75;0.22;;;;;;;;;;5019375;28;20042;-75
2023/12/21 02:54:05;;;;;;;1.33;0.10;;;;;;;;;;5030483;28;20037;-75
2023/12/21 02:56:30;;;;;;;1.67;0.10;;;;;;;;;;5029559;28;20112;-75
2023/12/21 02:58:55;;;;;;;0.30;0.10;;;;;;;;;;5025857;28;20037;-75
2023/12/21 03:01:21;;;;;;;0.47;0.10;;;;;;;;;;5026345;28;20021;-75
2023/12/21 03:03:46;;;;;;;0.40;0.00;;;;;;;;;;5022064;28;20033;-75
2023/12/21 03:06:11;;;;;;;0.88;0.20;;;;;;;;;;5023606;28;20036;-75
2023/12/21 03:08:36;;;;;;;0.60;0.28;;;;;;;;;;5029464;28;20112;-75
2023/12/21 03:11:02;;;;;;;0.38;0.10;;;;;;;;;;5029048;28;20548;-75
2023/12/21 03:13:27;;;;;;;0.22;0.05;;;;;;;;;;5026796;28;20523;-75
2023/12/21 03:15:52;;;;;;;0.90;0.00;;;;;;;;;;5023813;28;20038;-75
2023/12/21 03:18:17;;;;;;;0.57;0.10;;;;;;;;;;5028137;28;20402;-75
2023/12/21 03:20:42;;;;;;;0.20;0.10;;;;;;;;;;5028226;28;20033;-75
2023/12/21 03:23:08;;;;;;;0.63;0.13;;;;;;;;;;5029414;28;20045;-75
2023/12/21 03:25:33;;;;;;;0.55;0.10;;;;;;;;;;5027716;28;20036;-74
2023/12/21 03:27:59;;;;;;;0.20;0.10;;;;;;;;;;5025500;28;20494;-75
2023/12/21 03:30:24;;;;;;;0.68;0.10;;;;;;;;;;5025909;28;20033;-75
2023/12/21 03:32:50;;;;;;;1.10;0.25;;;;;;;;;;5028992;28;20090;-75
2023/12/21 03:35:15;;;;;;;0.63;0.13;;;;;;;;;;5026614;28;20393;-75
2023/12/21 03:37:40;;;;;;;0.90;0.10;;;;;;;;;;5027505;28;20079;-76
2023/12/21 03:40:06;;;;;;;0.77;0.20;;;;;;;;;;5025617;28;20030;-74
2023/12/21 03:42:31;;;;;;;0.95;0.20;;;;;;;;;;5025380;28;20108;-74
2023/12/21 03:44:56;;;;;;;1.35;0.10;;;;;;;;;;5022789;28;20402;-75
2023/12/21 03:47:21;;;;;;;0.55;0.10;;;;;;;;;;5021276;28;20033;-74
2023/12/21 03:49:47;;;;;;;0.30;0.10;;;;;;;;;;5027219;28;20509;-75
2023/12/21 03:52:12;;;;;;;0.10;0.00;;;;;;;;;;5028433;28;20025;-75
2023/12/21 03:54:37;;;;;;;0.30;0.10;;;;;;;;;;5025539;28;20064;-74
2023/12/21 03:57:02;;;;;;;0.65;0.10;;;;;;;;;;5024528;28;20034;-75
2023/12/21 03:59:27;;;;;;;1.35;0.10;;;;;;;;;;5026473;28;20029;-75
2023/12/21 04:01:53;;;;;;;0.43;0.10;;;;;;;;;;5024823;28;20487;-75
2023/12/21 04:04:18;;;;;;;0.90;0.10;;;;;;;;;;5030451;28;20032;-75
2023/12/21 04:06:43;;;;;;;0.20;0.10;;;;;;;;;;5027105;28;20033;-74
2023/12/21 04:09:08;;;;;;;1.23;0.10;;;;;;;;;;5030964;28;20065;-75
2023/12/21 04:11:34;;;;;;;0.20;0.10;;;;;;;;;;5023282;28;20037;-74
2023/12/21 04:13:59;;;;;;;0.20;0.00;;;;;;;;;;5021150;28;20025;-75
2023/12/21 04:16:24;;;;;;;0.10;0.08;;;;;;;;;;5023046;28;20061;-77
2023/12/21 04:18:49;;;;;;;0.13;0.00;;;;;;;;;;5034125;28;20056;-76
2023/12/21 04:21:14;;;;;;;0.50;0.10;;;;;;;;;;5029145;28;20038;-77
2023/12/21 04:23:40;;;;;;;1.40;0.30;;;;;;;;;;5022025;28;20022;-74
2023/12/21 04:26:05;;;;;;;1.27;0.08;;;;;;;;;;5025760;28;20021;-75
2023/12/21 04:28:30;;;;;;;0.75;0.20;;;;;;;;;;5025002;28;20108;-75
2023/12/21 04:30:55;;;;;;;0.28;0.10;;;;;;;;;;5028256;28;20033;-75
2023/12/21 04:33:21;;;;;;;0.95;0.10;;;;;;;;;;5032632;28;20040;-75
2023/12/21 04:35:46;;;;;;;1.83;0.10;;;;;;;;;;5028950;28;20056;-75
2023/12/21 04:38:14;;;;;;;0.30;0.10;;;;;;;;;;5024613;28;20120;-75
2023/12/21 04:40:39;;;;;;;0.25;0.10;;;;;;;;;;5025530;28;20022;-75
2023/12/21 04:43:08;;;;;;;1.30;0.10;;;;;;;;;;5025954;28;20581;-75
2023/12/21 04:45:33;;;;;;;0.50;0.22;;;;;;;;;;5025189;28;20101;-74
2023/12/21 04:47:58;;;;;;;0.20;0.10;;;;;;;;;;5031491;28;20187;-74
2023/12/21 04:50:23;;;;;;;1.52;0.10;;;;;;;;;;5024755;28;20030;-75
2023/12/21 04:52:49;;;;;;;1.15;0.10;;;;;;;;;;5021482;28;20046;-74
2023/12/21 04:55:15;;;;;;;0.10;0.10;;;;;;;;;;5023316;28;20075;-75
2023/12/21 04:57:40;;;;;;;0.52;0.10;;;;;;;;;;5013672;28;20065;-73
2023/12/21 05:00:08;;;;;;;0.30;0.00;;;;;;;;;;5027532;28;20033;-75
2023/12/21 05:02:34;;;;;;;0.75;0.15;;;;;;;;;;5022740;28;20038;-75
2023/12/21 05:04:59;;;;;;;1.50;1.02;;;;;;;;;;5024095;28;20048;-75
2023/12/21 05:07:25;;;;;;;0.22;0.10;;;;;;;;;;5024138;28;20033;-75
2023/12/21 05:09:50;;;;;;;0.10;0.10;;;;;;;;;;5022754;28;20065;-75
2023/12/21 05:12:15;;;;;;;0.10;0.08;;;;;;;;;;5025042;28;20030;-75
2023/12/21 05:14:40;;;;;;;0.00;0.00;;;;;;;;;;5026758;28;20052;-74
2023/12/21 05:17:05;;;;;;;0.43;0.08;;;;;;;;;;5030608;28;20040;-75
2023/12/21 05:19:30;;;;;;;0.10;0.10;;;;;;;;;;5020259;28;20026;-75
2023/12/21 05:21:56;;;;;;;0.38;0.10;;;;;;;;;;5016564;28;20498;-75
2023/12/21 05:24:21;;;;;;;2.40;0.82;;;;;;;;;;5030512;28;20067;-76
2023/12/21 05:26:46;;;;;;;1.95;0.30;;;;;;;;;;5022621;28;20041;-75
2023/12/21 05:29:11;;;;;;;1.58;0.40;;;;;;;;;;5029368;28;20075;-75
2023/12/21 05:31:37;;;;;;;7.93;4.43;;;;;;;;;;5025822;28;20030;-74
2023/12/21 05:34:03;;;;;;;1.23;0.40;;;;;;;;;;5025275;28;20132;-75
2023/12/21 05:36:28;;;;;;;1.30;0.15;;;;;;;;;;5030290;28;20483;-74
2023/12/21 05:38:53;;;;;;;0.40;0.10;;;;;;;;;;5024307;28;20057;-73
2023/12/21 05:41:18;;;;;;;0.30;0.10;;;;;;;;;;5031447;28;20029;-75
2023/12/21 05:43:44;;;;;;;0.20;0.10;;;;;;;;;;5022594;28;20064;-75
2023/12/21 05:46:09;;;;;;;0.20;0.10;;;;;;;;;;5029162;28;20034;-75
2023/12/21 05:48:34;;;;;;;0.10;0.00;;;;;;;;;;5028703;28;20175;-75
2023/12/21 05:50:59;;;;;;;0.85;0.10;;;;;;;;;;5020408;28;20057;-75
2023/12/21 05:53:25;;;;;;;0.20;0.10;;;;;;;;;;5028276;28;20372;-74
2023/12/21 05:55:50;;;;;;;0.10;0.00;;;;;;;;;;5027153;28;20121;-76
2023/12/21 05:58:15;;;;;;;0.10;0.05;;;;;;;;;;5028999;28;20037;-75
2023/12/21 06:00:40;;;;;;;0.52;0.10;;;;;;;;;;5028072;28;20041;-76
2023/12/21 06:03:05;;;;;;;0.22;0.05;;;;;;;;;;5026156;28;20030;-76
2023/12/21 06:05:31;;;;;;;0.10;0.00;;;;;;;;;;5027992;28;20102;-76
2023/12/21 06:07:56;;;;;;;1.67;0.40;;;;;;;;;;5026246;28;20121;-75
2023/12/21 06:10:21;;;;;;;0.25;0.00;;;;;;;;;;5026671;28;20033;-75
2023/12/21 06:12:46;;;;;;;0.40;0.10;;;;;;;;;;5024621;28;20512;-76
2023/12/21 06:15:12;;;;;;;0.65;0.20;;;;;;;;;;5023516;28;20029;-75
2023/12/21 06:17:37;;;;;;;0.00;0.00;;;;;;;;;;5027299;28;20045;-76
2023/12/21 06:20:03;;;;;;;0.85;0.15;;;;;;;;;;5021321;28;20057;-76
2023/12/21 06:22:28;;;;;;;1.33;0.20;;;;;;;;;;5026528;28;20451;-76
2023/12/21 06:24:53;;;;;;;1.38;0.10;;;;;;;;;;5029466;28;20042;-75
2023/12/21 06:27:18;;;;;;;0.40;0.00;;;;;;;;;;5027925;28;20072;-76
2023/12/21 06:29:43;;;;;;;1.23;0.10;;;;;;;;;;5024811;28;20029;-75
2023/12/21 06:32:10;;;;;;;0.03;0.00;;;;;;;;;;5023062;28;20029;-76
2023/12/21 06:34:35;;;;;;;0.13;0.05;;;;;;;;;;5022105;28;20117;-75
2023/12/21 06:37:01;;;;;;;0.15;0.05;;;;;;;;;;5028442;28;20431;-76
2023/12/21 06:39:26;;;;;;;0.40;0.10;;;;;;;;;;5026500;28;20030;-75
2023/12/21 06:41:51;;;;;;;0.70;0.28;;;;;;;;;;5025801;28;20030;-76
2023/12/21 06:44:16;;;;;;;0.38;0.10;;;;;;;;;;5027861;28;20044;-75
2023/12/21 06:46:42;;;;;;;0.10;0.00;;;;;;;;;;5021505;28;20029;-75
2023/12/21 06:49:11;;;;;;;0.60;0.10;;;;;;;;;;5029178;28;20041;-76
2023/12/21 06:51:36;;;;;;;0.38;0.10;;;;;;;;;;5030265;28;20124;-76
2023/12/21 06:54:01;;;;;;;0.77;0.25;;;;;;;;;;5025720;28;20113;-76
2023/12/21 06:56:26;;;;;;;0.75;0.20;;;;;;;;;;5027953;28;20133;-76
2023/12/21 06:58:52;;;;;;;0.68;0.20;;;;;;;;;;5022498;28;20487;-76
2023/12/21 07:01:17;;;;;;;1.08;0.20;;;;;;;;;;5023483;28;20026;-76
2023/12/21 07:03:43;;;;;;;0.88;0.28;;;;;;;;;;5023100;28;20116;-76
2023/12/21 07:06:08;;;;;;;0.88;0.40;;;;;;;;;;5024478;28;20032;-75
2023/12/21 07:08:34;;;;;;;0.30;0.17;;;;;;;;;;5026642;28;20041;-76
2023/12/21 07:10:59;;;;;;;1.85;0.20;;;;;;;;;;5026323;28;20026;-76
2023/12/21 07:13:24;;;;;;;0.40;0.13;;;;;;;;;;5024527;28;20367;-76
2023/12/21 07:15:49;;;;;;;0.25;0.10;;;;;;;;;;5023545;28;20022;-76
2023/12/21 07:18:15;;;;;;;0.63;0.20;;;;;;;;;;5030779;28;20021;-76
2023/12/21 07:20:40;;;;;;;0.57;0.20;;;;;;;;;;5029074;28;20059;-75
2023/12/21 07:23:05;;;;;;;0.88;0.40;;;;;;;;;;5027147;28;20472;-76
2023/12/21 07:25:30;;;;;;;0.60;0.20;;;;;;;;;;5026270;28;20032;-75
2023/12/21 07:27:55;;;;;;;0.28;0.10;;;;;;;;;;5023181;28;20525;-76
2023/12/21 07:30:20;;;;;;;0.80;0.20;;;;;;;;;;5024131;28;20061;-75
2023/12/21 07:32:46;;;;;;;0.20;0.10;;;;;;;;;;5028929;28;20061;-76
2023/12/21 07:35:11;;;;;;;0.45;0.13;;;;;;;;;;5026432;28;20032;-76
2023/12/21 07:37:36;;;;;;;1.30;0.30;;;;;;;;;;5024968;28;20564;-75
2023/12/21 07:40:01;;;;;;;0.60;0.28;;;;;;;;;;5019607;28;20088;-75
2023/12/21 07:42:27;;;;;;;1.73;0.30;;;;;;;;;;5022883;28;20026;-76
2023/12/21 07:44:52;;;;;;;0.68;0.17;;;;;;;;;;5023702;28;20539;-75
2023/12/21 07:47:17;;;;;;;0.73;0.22;;;;;;;;;;5028420;28;20110;-75
2023/12/21 07:49:43;;;;;;;0.75;0.10;;;;;;;;;;5029942;28;20057;-76
2023/12/21 07:52:08;;;;;;;0.82;0.10;;;;;;;;;;5021872;28;20053;-76
2023/12/21 07:54:33;;;;;;;0.05;0.00;;;;;;;;;;5020304;28;20071;-76
2023/12/21 07:56:58;;;;;;;1.38;0.38;;;;;;;;;;5024397;28;20057;-74
2023/12/21 07:59:24;;;;;;;1.80;0.40;;;;;;;;;;5025802;28;20417;-76
2023/12/21 08:01:49;;;;;;;0.90;0.30;;;;;;;;;;5028211;28;20030;-76
2023/12/21 08:04:16;;;;;;;0.98;0.30;;;;;;;;;;5027286;28;20397;-76
2023/12/21 08:06:41;;;;;;;1.10;0.17;;;;;;;;;;5022886;28;20038;-76
2023/12/21 08:09:06;;;;;;;1.30;0.10;;;;;;;;;;5029619;28;20512;-76
2023/12/21 08:11:32;;;;;;;0.57;0.00;;;;;;;;;;5020306;28;20018;-76
2023/12/21 08:13:57;;;;;;;0.90;0.08;;;;;;;;;;5029133;28;20048;-76
2023/12/21 08:16:22;;;;;;;1.58;0.30;;;;;;;;;;5028291;28;20459;-76
2023/12/21 08:18:47;;;;;;;1.15;0.20;;;;;;;;;;5026130;28;20113;-76
2023/12/21 08:21:12;;;;;;;0.70;0.10;;;;;;;;;;5026444;28;20021;-76
2023/12/21 08:23:38;;;;;;;0.20;0.10;;;;;;;;;;5020185;28;20611;-75
2023/12/21 08:26:04;;;;;;;0.77;0.10;;;;;;;;;;5024638;28;20105;-76
2023/12/21 08:28:30;;;;;;;0.65;0.20;;;;;;;;;;5028881;28;20034;-74
2023/12/21 08:30:55;;;;;;;1.08;0.10;;;;;;;;;;5026072;28;20088;-75
2023/12/21 08:33:20;;;;;;;0.10;0.10;;;;;;;;;;5025507;28;20026;-75
2023/12/21 08:35:46;;;;;;;1.90;0.10;;;;;;;;;;5021935;28;20417;-76
2023/12/21 08:38:12;;;;;;;1.10;0.40;;;;;;;;;;5026431;28;20091;-76
2023/12/21 08:40:37;;;;;;;0.80;0.20;;;;;;;;;;5022487;28;20501;-75
2023/12/21 08:43:02;;;;;;;1.08;0.10;;;;;;;;;;5027841;28;20034;-75
2023/12/21 08:45:27;;;;;;;0.98;0.10;;;;;;;;;;5023632;28;20030;-75
2023/12/21 08:47:54;;;;;;;0.15;0.03;;;;;;;;;;5027148;28;20067;-75
2023/12/21 08:50:19;;;;;;;0.63;0.10;;;;;;;;;;5024550;28;20031;-75
2023/12/21 08:52:44;;;;;;;0.10;0.00;;;;;;;;;;5022605;28;20034;-76
2023/12/21 08:55:10;;;;;;;0.68;0.10;;;;;;;;;;5038802;28;20449;-75
2023/12/21 08:57:36;;;;;;;0.93;0.15;;;;;;;;;;5034793;28;20033;-75
2023/12/21 09:00:12;;;;;;;0.57;0.20;;;;;;;;;;5027627;28;20040;-74
2023/12/21 09:02:40;;;;;;;0.82;0.30;;;;;;;;;;5025538;28;20041;-74
2023/12/21 09:05:06;;;;;;;0.77;0.20;;;;;;;;;;5028559;28;20100;-75
2023/12/21 09:08:00;;;;;;;0.05;0.00;;;;;;;;;;5023835;28;20044;-76
2023/12/21 09:10:26;;;;;;;0.10;0.00;;;;;;;;;;5028134;28;20421;-76
2023/12/21 09:12:51;;;;;;;1.20;0.10;;;;;;;;;;5029095;28;20112;-76
2023/12/21 09:15:16;;;;;;;0.10;0.10;;;;;;;;;;5027109;28;20061;-77
2023/12/21 09:17:42;;;;;;;0.17;0.10;;;;;;;;;;5028413;28;20067;-76
2023/12/21 09:20:10;;;;;;;0.80;0.13;;;;;;;;;;5026202;28;20497;-76
2023/12/21 09:22:37;;;;;;;0.30;0.10;;;;;;;;;;5024877;28;20474;-75
2023/12/21 09:25:02;;;;;;;0.30;0.10;;;;;;;;;;5029536;28;20034;-76
2023/12/21 09:27:28;;;;;;;0.95;0.20;;;;;;;;;;5029485;28;20037;-76
2023/12/21 09:29:53;;;;;;;0.10;0.00;;;;;;;;;;5027101;28;20037;-76
2023/12/21 09:32:19;;;;;;;1.80;0.20;;;;;;;;;;5025184;28;20425;-76
2023/12/21 09:34:50;;;;;;;0.90;0.20;;;;;;;;;;5024132;28;20052;-76
2023/12/21 09:37:16;;;;;;;0.30;0.10;;;;;;;;;;5027675;28;20144;-76
2023/12/21 09:39:41;;;;;;;0.25;0.10;;;;;;;;;;5032517;28;20506;-76
2023/12/21 09:42:06;;;;;;;2.63;0.20;;;;;;;;;;5028344;28;20137;-75
2023/12/21 09:44:32;;;;;;;0.28;0.10;;;;;;;;;;5025661;28;20022;-76
2023/12/21 09:46:58;;;;;;;0.80;0.20;;;;;;;;;;5021301;28;20092;-76
2023/12/21 09:49:23;;;;;;;0.10;0.00;;;;;;;;;;5031730;28;20041;-76
2023/12/21 09:51:49;;;;;;;0.47;0.00;;;;;;;;;;5027840;28;20029;-76
2023/12/21 09:54:16;;;;;;;0.98;0.10;;;;;;;;;;5029175;28;20499;-75
2023/12/21 09:56:42;;;;;;;0.30;0.10;;;;;;;;;;5024140;28;20072;-76
2023/12/21 09:59:08;;;;;;;0.32;0.00;;;;;;;;;;5028575;28;20117;-76
2023/12/21 10:01:33;;;;;;;0.82;0.20;;;;;;;;;;5024412;28;20453;-76
2023/12/21 10:03:58;;;;;;;0.77;0.30;;;;;;;;;;5029963;28;20037;-75
2023/12/21 10:06:24;;;;;;;0.10;0.00;;;;;;;;;;5031212;28;20029;-76
2023/12/21 10:08:49;;;;;;;0.30;0.10;;;;;;;;;;5027879;28;20116;-76
2023/12/21 10:11:14;;;;;;;2.45;0.40;;;;;;;;;;5029883;28;20037;-76
2023/12/21 10:13:45;;;;;;;1.30;0.13;;;;;;;;;;5026266;28;20079;-76
2023/12/21 10:16:10;;;;;;;0.35;0.10;;;;;;;;;;5023661;28;20087;-76
2023/12/21 10:18:35;;;;;;;0.40;0.10;;;;;;;;;;5026443;28;20037;-76
2023/12/21 10:21:00;;;;;;;0.82;0.17;;;;;;;;;;5028780;28;20483;-76
2023/12/21 10:23:26;;;;;;;0.63;0.00;;;;;;;;;;5027540;28;20067;-76
2023/12/21 10:25:51;;;;;;;0.50;0.10;;;;;;;;;;5025982;28;20479;-76
2023/12/21 10:28:20;;;;;;;2.40;0.00;;;;;;;;;;5023028;28;20030;-75
2023/12/21 10:30:51;;;;;;;0.43;0.20;;;;;;;;;;5027272;28;20033;-76
2023/12/21 10:33:16;;;;;;;0.35;0.17;;;;;;;;;;5034784;28;20030;-76
2023/12/21 10:35:42;;;;;;;0.10;0.00;;;;;;;;;;5029880;28;20112;-76
2023/12/21 10:38:08;;;;;;;0.80;0.10;;;;;;;;;;5026334;28;20042;-76
2023/12/21 10:40:34;;;;;;;0.43;0.10;;;;;;;;;;5026866;28;20041;-76
2023/12/21 10:42:59;;;;;;;0.60;0.10;;;;;;;;;;5025287;28;20036;-76
2023/12/21 10:45:24;;;;;;;0.80;0.10;;;;;;;;;;5027521;28;20022;-77
2023/12/21 10:47:55;;;;;;;0.77;0.20;;;;;;;;;;5031796;28;20435;-76
2023/12/21 10:50:20;;;;;;;0.20;0.10;;;;;;;;;;5028876;28;20033;-76
2023/12/21 10:52:46;;;;;;;0.00;0.00;;;;;;;;;;5025531;28;20391;-75
2023/12/21 10:55:14;;;;;;;0.68;0.20;;;;;;;;;;5026542;28;20036;-75
2023/12/21 10:57:40;;;;;;;0.30;0.05;;;;;;;;;;5021790;28;20025;-75
2023/12/21 11:00:11;;;;;;;1.35;0.43;;;;;;;;;;5026853;28;20550;-75
2023/12/21 11:02:37;;;;;;;2.17;0.10;;;;;;;;;;5029552;28;20478;-75
2023/12/21 11:05:03;;;;;;;1.35;0.10;;;;;;;;;;5028423;28;20056;-76
2023/12/21 11:07:30;;;;;;;0.30;0.10;;;;;;;;;;5026379;28;20038;-75
2023/12/21 11:09:55;;;;;;;2.28;0.10;;;;;;;;;;5022457;28;20073;-75
2023/12/21 11:12:20;;;;;;;2.60;0.10;;;;;;;;;;5022466;28;20069;-74
2023/12/21 11:14:46;;;;;;;0.63;0.10;;;;;;;;;;5028030;28;20507;-74
2023/12/21 11:17:11;;;;;;;0.17;0.05;;;;;;;;;;5026890;28;20495;-73
2023/12/21 11:19:38;;;;;;;0.85;0.28;;;;;;;;;;5032391;28;20531;-74
2023/12/21 11:22:03;;;;;;;1.27;0.38;;;;;;;;;;5025585;28;20495;-73
2023/12/21 11:24:29;;;;;;;0.77;0.20;;;;;;;;;;5023784;28;20040;-74
2023/12/21 11:26:55;;;;;;;0.65;0.20;;;;;;;;;;5027643;28;20041;-74
2023/12/21 11:29:22;;;;;;;0.32;0.10;;;;;;;;;;5029998;28;20069;-73
2023/12/21 11:31:48;;;;;;;0.40;0.20;;;;;;;;;;5030191;28;20026;-73
2023/12/21 11:34:19;;;;;;;0.45;0.10;;;;;;;;;;5029991;28;20378;-74
2023/12/21 11:36:44;;;;;;;0.25;0.10;;;;;;;;;;5028205;28;20061;-73
2023/12/21 11:39:14;;;;;;;1.27;0.95;;;;;;;;;;5030258;28;20091;-73
2023/12/21 11:41:47;;;;;;;0.63;0.20;;;;;;;;;;5028286;28;20049;-73
2023/12/21 11:44:12;;;;;;;0.32;0.10;;;;;;;;;;5028951;28;20017;-73
2023/12/21 11:46:38;;;;;;;0.80;0.10;;;;;;;;;;5028487;28;20577;-73
2023/12/21 11:49:04;;;;;;;0.38;0.17;;;;;;;;;;5029825;28;20044;-73
2023/12/21 11:51:31;;;;;;;0.95;0.10;;;;;;;;;;5024392;28;20042;-73
2023/12/21 11:54:02;;;;;;;0.35;0.17;;;;;;;;;;5022857;28;20061;-73
2023/12/21 11:56:34;;;;;;;0.93;0.40;;;;;;;;;;5027602;28;20033;-73
2023/12/21 11:59:00;;;;;;;0.68;0.10;;;;;;;;;;5026609;28;20037;-73
2023/12/21 12:01:25;;;;;;;2.50;0.70;;;;;;;;;;5026399;28;20029;-74
2023/12/21 12:03:51;;;;;;;0.93;0.30;;;;;;;;;;5022673;28;20033;-74
2023/12/21 12:06:16;;;;;;;1.95;0.30;;;;;;;;;;5025633;28;20048;-74
2023/12/21 12:08:43;;;;;;;0.50;0.10;;;;;;;;;;5018887;28;20085;-74
2023/12/21 12:11:08;;;;;;;0.30;0.10;;;;;;;;;;5027250;28;20033;-73
2023/12/21 12:13:33;;;;;;;0.30;0.10;;;;;;;;;;5029068;28;20049;-74
2023/12/21 12:15:58;;;;;;;0.63;0.20;;;;;;;;;;5022150;28;20034;-74
2023/12/21 12:18:23;;;;;;;0.28;0.10;;;;;;;;;;5024640;28;20033;-74
2023/12/21 12:20:50;;;;;;;1.52;0.10;;;;;;;;;;5025394;28;20041;-74
2023/12/21 12:23:16;;;;;;;0.17;0.08;;;;;;;;;;5030057;28;20045;-74
2023/12/21 12:25:42;;;;;;;0.32;0.00;;;;;;;;;;5031142;28;20036;-74
2023/12/21 12:28:07;;;;;;;1.33;0.52;;;;;;;;;;5027345;28;20033;-73
2023/12/21 12:30:33;;;;;;;0.38;0.17;;;;;;;;;;5020208;28;20501;-73
2023/12/21 12:33:02;;;;;;;0.75;0.10;;;;;;;;;;5025151;28;20038;-74
2023/12/21 12:35:28;;;;;;;1.10;0.20;;;;;;;;;;5026857;28;20110;-74
2023/12/21 12:37:53;;;;;;;0.47;0.20;;;;;;;;;;5027292;28;20450;-74
2023/12/21 12:40:20;;;;;;;0.20;0.08;;;;;;;;;;5030166;28;20024;-73
2023/12/21 12:42:45;;;;;;;1.75;0.20;;;;;;;;;;5027654;28;20034;-74
2023/12/21 12:45:11;;;;;;;0.22;0.10;;;;;;;;;;5027608;28;20493;-73
2023/12/21 12:47:37;;;;;;;0.52;0.10;;;;;;;;;;5025515;28;20041;-73
2023/12/21 12:50:03;;;;;;;0.55;0.25;;;;;;;;;;5024379;28;20045;-74
2023/12/21 12:52:28;;;;;;;1.67;0.10;;;;;;;;;;5031988;28;20040;-74
2023/12/21 12:54:53;;;;;;;1.02;0.10;;;;;;;;;;5045484;23;20146;-82
2023/12/21 12:57:24;;;;;;;0.57;0.20;;;;;;;;;;5030784;28;20045;-83
2023/12/21 12:59:49;;;;;;;0.73;0.25;;;;;;;;;;5047186;28;20029;-83
2023/12/21 13:02:14;;;;;;;1.63;0.50;;;;;;;;;;5037606;28;20022;-83
2023/12/21 13:04:39;;;;;;;0.32;0.10;;;;;;;;;;5031651;28;20498;-83
2023/12/21 13:07:04;;;;;;;0.77;0.20;;;;;;;;;;5037707;28;20041;-84
2023/12/21 13:09:31;;;;;;;0.55;0.10;;;;;;;;;;5033090;28;20033;-82
2023/12/21 13:11:56;;;;;;;0.57;0.20;;;;;;;;;;5030629;28;20061;-83
2023/12/21 13:14:21;;;;;;;1.15;0.15;;;;;;;;;;5034239;28;20494;-83
2023/12/21 13:16:46;;;;;;;0.75;0.10;;;;;;;;;;5030300;28;20033;-83
2023/12/21 13:19:11;;;;;;;0.10;0.10;;;;;;;;;;5041763;28;20037;-83
2023/12/21 13:21:37;;;;;;;0.60;0.25;;;;;;;;;;5036988;28;20044;-84
2023/12/21 13:24:02;;;;;;;0.30;0.05;;;;;;;;;;5035046;28;20533;-83
2023/12/21 13:26:28;;;;;;;0.88;0.17;;;;;;;;;;5035649;28;20060;-83
2023/12/21 13:28:54;;;;;;;0.65;0.20;;;;;;;;;;5013254;28;20499;-82
2023/12/21 13:31:20;;;;;;;1.05;0.40;;;;;;;;;;5027640;28;20040;-83
2023/12/21 13:33:45;;;;;;;0.55;0.20;;;;;;;;;;5033560;28;20034;-84
2023/12/21 13:36:10;;;;;;;1.00;0.20;;;;;;;;;;5033940;28;20026;-83
2023/12/21 13:38:37;;;;;;;0.57;0.10;;;;;;;;;;5033623;28;20091;-84
2023/12/21 13:41:02;;;;;;;0.20;0.10;;;;;;;;;;5033778;28;20053;-83
2023/12/21 13:43:28;;;;;;;0.35;0.20;;;;;;;;;;5025419;28;20026;-84
2023/12/21 13:45:54;;;;;;;0.45;0.10;;;;;;;;;;5017406;28;20562;-83
2023/12/21 13:48:21;;;;;;;1.08;0.38;;;;;;;;;;5038962;28;20029;-83
2023/12/21 13:50:46;;;;;;;0.28;0.10;;;;;;;;;;5034525;28;20474;-84
2023/12/21 13:53:11;;;;;;;0.30;0.10;;;;;;;;;;5030264;28;20038;-84
2023/12/21 13:55:36;;;;;;;0.38;0.10;;;;;;;;;;5029289;28;20026;-83
2023/12/21 13:58:02;;;;;;;1.90;0.20;;;;;;;;;;5025955;28;20029;-84
2023/12/21 14:00:27;;;;;;;0.85;0.40;;;;;;;;;;5029459;28;20030;-82
2023/12/21 14:02:52;;;;;;;0.22;0.13;;;;;;;;;;5030648;28;20099;-83
2023/12/21 14:05:18;;;;;;;0.35;0.20;;;;;;;;;;5029570;28;20025;-83
2023/12/21 14:07:43;;;;;;;1.95;0.10;;;;;;;;;;5029637;28;20376;-83
2023/12/21 14:10:08;;;;;;;0.20;0.10;;;;;;;;;;5009121;28;20041;-83
2023/12/21 14:12:34;;;;;;;0.70;0.30;;;;;;;;;;5027949;28;20029;-82
2023/12/21 14:14:59;;;;;;;1.08;0.20;;;;;;;;;;5025228;28;20071;-83
2023/12/21 14:17:25;;;;;;;0.75;0.17;;;;;;;;;;5031356;28;20104;-83
2023/12/21 14:19:51;;;;;;;0.38;0.10;;;;;;;;;;5035128;28;20037;-83
2023/12/21 14:22:16;;;;;;;1.55;0.32;;;;;;;;;;5030490;28;20037;-85
2023/12/21 14:24:41;;;;;;;0.47;0.20;;;;;;;;;;5027834;28;20033;-83
2023/12/21 14:27:06;;;;;;;0.30;0.10;;;;;;;;;;5025244;28;20030;-83
2023/12/21 14:29:31;;;;;;;0.20;0.10;;;;;;;;;;5028207;28;20164;-83
2023/12/21 14:31:56;;;;;;;0.20;0.00;;;;;;;;;;5031308;28;20452;-83
2023/12/21 14:34:22;;;;;;;2.35;0.35;;;;;;;;;;5032987;28;20032;-83